Latest Coastal Weather Observations for Cato Island

IDQ60701

Issued at 6:45 pm EST Sunday 26 October 2014 (issued every 10 minutes, with the page automatically refreshed every 10 minutes)

About coastal observations | Map of coastal stations | Coastal observations for QLD | Marine services | Other Formats
Station Details ID: 200601 Name: CATO ISLAND Lat: -23.25 Lon: 155.54 Height: 6.3 m
Data from the previous 72 hours. | See also: Recent months for locations in Queensland
Date/Time
EST
Temp

°C
Wind Pressure Rain
since 9am
mm
Weather Cloud Vis
km
Sea
Height
m
Swell
Dir
 
Speed
knots
Gust
knots
hPa Trend Height
m
Period
s
Dir
26/06:30pm 22.3 ENE 11 14 1016.8 - - - - - - - - -
26/06:00pm 22.4 ENE 11 12 1016.5 - - - - - - - - -
26/05:30pm 22.6 ENE 10 11 1016.4 - - - - - - - - -
26/05:00pm 22.9 ENE 10 12 1016.3 - - - - - - - - -
26/04:30pm 23.2 ENE 9 11 1016.1 - - - - - - - - -
26/04:00pm 23.6 ENE 8 11 1016.0 - - - - - - - - -
26/03:30pm 23.4 E 8 11 1016.0 - - - - - - - - -
26/03:00pm 23.7 E 7 9 1016.0 - - - - - - - - -
26/02:30pm 24.1 E 7 10 1016.1 - - - - - - - - -
26/02:00pm 24.0 ENE 7 8 1016.1 - - - - - - - - -
26/01:30pm 24.2 E 6 7 1016.4 - - - - - - - - -
26/01:00pm 24.1 E 6 8 1016.8 - - - - - - - - -
26/12:30pm 24.0 E 6 7 1017.2 - - - - - - - - -
26/12:00pm 24.6 E 6 8 1017.6 - - - - - - - - -
26/11:30am 24.5 ENE 6 9 1018.0 - - - - - - - - -
26/11:00am 24.5 ENE 7 9 1018.4 - - - - - - - - -
26/10:30am 24.6 E 7 9 1019.0 - - - - - - - - -
26/10:00am 24.4 ENE 7 9 1019.3 - - - - - - - - -
26/09:30am 24.2 ENE 8 10 1019.3 - - - - - - - - -
26/09:00am 24.5 ENE 9 11 1019.2 - - - - - - - - -
26/08:30am 23.8 ENE 8 10 1019.3 - - - - - - - - -
26/08:00am 24.0 NE 8 11 1019.2 - - - - - - - - -
26/07:30am 23.9 NE 8 10 1019.0 - - - - - - - - -
26/07:00am 23.5 NNE 9 11 1018.8 - - - - - - - - -
26/06:30am 23.1 NE 9 11 1018.8 - - - - - - - - -
26/06:00am 22.0 NE 11 13 1018.5 - - - - - - - - -
26/05:30am 21.6 NE 11 14 1018.1 - - - - - - - - -
26/05:00am 21.5 NE 12 14 1017.7 - - - - - - - - -
26/04:30am 21.6 NE 12 15 1017.5 - - - - - - - - -
26/04:00am 21.5 NE 12 15 1017.3 - - - - - - - - -
26/03:30am 21.5 NE 12 15 1017.3 - - - - - - - - -
26/03:00am 21.4 NE 13 15 1017.3 - - - - - - - - -
26/02:30am 21.5 NE 13 16 1017.2 - - - - - - - - -
26/02:00am 21.6 NE 13 16 1017.2 - - - - - - - - -
26/01:30am 21.4 NE 13 15 1017.4 - - - - - - - - -
26/01:00am 21.3 NE 14 16 1017.7 - - - - - - - - -
26/12:30am 21.4 NE 13 15 1018.1 - - - - - - - - -
26/12:00am 21.7 NE 14 16 1018.4 - - - - - - - - -
 
Date/Time
EST
Temp

°C
Wind Pressure Rain
since 9am
mm
Weather Cloud Vis
km
Sea
Height
m
Swell
Dir
 
Speed
knots
Gust
knots
hPa Trend Height
m
Period
s
Dir
25/11:30pm 21.9 ENE 12 14 1018.8 - - - - - - - - -
25/11:00pm 21.8 ENE 13 15 1019.1 - - - - - - - - -
25/10:30pm 22.0 ENE 13 15 1019.2 - - - - - - - - -
25/10:00pm 21.9 ENE 12 15 1019.5 - - - - - - - - -
25/09:30pm 22.0 E 11 13 1019.8 - - - - - - - - -
25/09:00pm 22.1 E 11 13 1019.8 - - - - - - - - -
25/08:30pm 22.3 E 11 12 1019.6 - - - - - - - - -
25/08:00pm 22.1 E 10 12 1019.3 - - - - - - - - -
25/07:30pm 22.1 E 10 14 1019.2 - - - - - - - - -
25/07:00pm 22.1 E 10 14 1018.9 - - - - - - - - -
25/06:30pm 22.2 E 10 12 1018.7 - - - - - - - - -
25/06:00pm 22.2 E 10 12 1018.5 - - - - - - - - -
25/05:30pm 22.3 E 11 14 1018.2 - - - - - - - - -
25/05:00pm 22.6 E 9 11 1018.0 - - - - - - - - -
25/04:30pm 22.5 E 9 11 1017.8 - - - - - - - - -
25/04:00pm 22.4 E 12 14 1017.7 - - - - - - - - -
25/03:30pm 22.8 ESE 10 13 1017.8 - - - - - - - - -
25/03:00pm 23.0 ESE 11 14 1018.0 - - - - - - - - -
25/02:30pm 22.9 SE 11 14 1018.2 - - - - - - - - -
25/02:00pm 23.2 SE 10 12 1018.5 - - - - - - - - -
25/01:30pm 23.4 SE 8 9 1018.9 - - - - - - - - -
25/01:00pm 23.3 SE 8 10 1019.2 - - - - - - - - -
25/12:30pm 23.6 ESE 7 10 1019.4 - - - - - - - - -
25/12:00pm 23.6 ESE 7 9 1019.8 - - - - - - - - -
25/11:30am 23.5 E 7 9 1020.0 - - - - - - - - -
25/11:00am 23.2 E 8 11 1020.1 - - - - - - - - -
25/10:30am 23.6 E 9 12 1020.6 - - - - - - - - -
25/10:00am 23.7 E 11 13 1020.8 - - - - - - - - -
25/09:30am 23.8 E 10 13 1021.0 - - - - - - - - -
25/09:00am 23.4 ENE 11 13 1021.0 - - - - - - - - -
25/08:30am 23.7 ENE 11 14 1021.0 - - - - - - - - -
25/08:00am 23.1 ENE 12 15 1020.8 - - - - - - - - -
25/07:30am 22.8 ENE 12 14 1020.6 - - - - - - - - -
25/07:00am 22.8 E 13 16 1020.4 - - - - - - - - -
25/06:30am 22.6 E 13 15 1020.3 - - - - - - - - -
25/06:00am 22.3 E 13 16 1020.0 - - - - - - - - -
25/05:30am 21.9 E 15 19 1019.6 - - - - - - - - -
25/05:00am 21.7 E 14 17 1019.3 - - - - - - - - -
25/04:30am 21.6 ENE 15 18 1019.1 - - - - - - - - -
25/04:00am 21.6 E 14 17 1019.1 - - - - - - - - -
25/03:30am 21.5 ENE 16 19 1019.0 - - - - - - - - -
25/03:00am 21.5 E 17 21 1018.9 - - - - - - - - -
25/02:30am 21.7 ENE 16 19 1018.9 - - - - - - - - -
25/02:00am 21.8 E 17 21 1018.9 - - - - - - - - -
25/01:30am 21.5 E 18 21 1019.1 - - - - - - - - -
25/01:00am 21.9 E 18 22 1019.4 - - - - - - - - -
25/12:30am 21.9 E 17 21 1019.7 - - - - - - - - -
25/12:00am 21.9 E 18 20 1019.9 - - - - - - - - -
 
Date/Time
EST
Temp

°C
Wind Pressure Rain
since 9am
mm
Weather Cloud Vis
km
Sea
Height
m
Swell
Dir
 
Speed
knots
Gust
knots
hPa Trend Height
m
Period
s
Dir
24/11:30pm 22.0 E 17 21 1020.1 - - - - - - - - -
24/11:00pm 22.2 E 17 20 1020.5 - - - - - - - - -
24/10:30pm 22.0 E 16 18 1020.8 - - - - - - - - -
24/10:00pm 22.0 ESE 15 18 1021.0 - - - - - - - - -
24/09:30pm 22.0 ESE 15 19 1021.0 - - - - - - - - -
24/09:00pm 22.1 ESE 15 19 1021.1 - - - - - - - - -
24/08:30pm 21.9 ESE 14 17 1021.1 - - - - - - - - -
24/08:00pm 21.9 ESE 12 15 1021.1 - - - - - - - - -
24/07:30pm 22.3 ESE 13 16 1020.8 - - - - - - - - -
24/07:00pm 22.0 ESE 12 15 1020.7 - - - - - - - - -
24/06:30pm 22.1 SE 12 15 1020.6 - - - - - - - - -
24/06:00pm 22.0 ESE 10 13 1020.5 - - - - - - - - -
24/05:30pm 22.1 SE 11 15 1020.0 - - - - - - - - -
24/05:00pm 22.2 ESE 14 17 1019.6 - - - - - - - - -
24/04:30pm 22.3 ESE 15 18 1019.1 - - - - - - - - -
24/04:00pm 22.2 ESE 16 19 1018.9 - - - - - - - - -
24/03:30pm 22.4 ESE 16 19 1018.9 - - - - - - - - -
24/03:00pm 22.4 ESE 17 20 1018.9 - - - - - - - - -
24/02:30pm 22.8 ESE 18 21 1018.9 - - - - - - - - -
24/02:00pm 22.6 ESE 18 21 1019.3 - - - - - - - - -
24/01:30pm 22.6 ESE 17 20 1019.4 - - - - - - - - -
24/01:00pm 22.4 ESE 19 21 1019.6 - - - - - - - - -
24/12:30pm 22.6 SE 17 20 1019.9 - - - - - - - - -
24/12:00pm 22.8 ESE 14 17 1020.3 - - - - - - - - -
24/11:30am 22.9 SE 14 16 1020.8 - - - - - - - - -
24/11:00am 22.6 ESE 14 17 1020.9 - - - - - - - - -
24/10:30am 22.8 ESE 15 18 1020.9 - - - - - - - - -
24/10:00am 22.7 ESE 15 16 1021.2 - - - - - - - - -
24/09:30am 22.5 ESE 14 18 1021.4 - - - - - - - - -
24/09:00am 22.4 ESE 15 17 1021.3 - - - - - - - - -
24/08:30am 22.4 ESE 16 19 1021.3 - - - - - - - - -
24/08:00am 22.4 ESE 15 18 1021.2 - - - - - - - - -
24/07:30am 22.3 ESE 14 17 1021.0 - - - - - - - - -
24/07:00am 22.3 ESE 14 17 1020.6 - - - - - - - - -
24/06:30am 22.0 ESE 13 15 1020.3 - - - - - - - - -
24/06:00am 21.8 E 12 14 1020.2 - - - - - - - - -
24/05:30am 21.6 ESE 13 16 1019.8 - - - - - - - - -
24/05:00am 21.4 ESE 13 15 1019.4 - - - - - - - - -
24/04:30am 21.4 ESE 13 16 1019.1 - - - - - - - - -
24/04:00am 21.3 ESE 12 14 1019.0 - - - - - - - - -
24/03:30am 21.3 E 12 14 1018.8 - - - - - - - - -
24/03:00am 21.3 ESE 11 13 1018.8 - - - - - - - - -
24/02:30am 21.2 E 9 11 1018.8 - - - - - - - - -
24/02:00am 21.3 E 11 13 1018.7 - - - - - - - - -
24/01:30am 21.4 E 10 12 1019.0 - - - - - - - - -
24/01:00am 21.3 E 10 12 1019.2 - - - - - - - - -
24/12:30am 21.4 E 11 13 1019.6 - - - - - - - - -
24/12:00am 21.3 E 13 15 1019.7 - - - - - - - - -
 
Date/Time
EST
Temp

°C
Wind Pressure Rain
since 9am
mm
Weather Cloud Vis
km
Sea
Height
m
Swell
Dir
 
Speed
knots
Gust
knots
hPa Trend Height
m
Period
s
Dir
23/11:30pm 21.4 E 13 16 1020.0 - - - - - - - - -
23/11:00pm 21.6 E 15 18 1020.2 - - - - - - - - -
23/10:30pm 21.3 E 13 16 1020.4 - - - - - - - - -
23/10:00pm 21.2 E 15 17 1020.4 - - - - - - - - -
23/09:30pm 21.4 E 17 20 1020.2 - - - - - - - - -
23/09:00pm 21.8 ESE 17 20 1020.1 - - - - - - - - -
23/08:30pm 21.7 ESE 16 20 1019.9 - - - - - - - - -
23/08:00pm 21.8 ESE 16 19 1019.5 - - - - - - - - -
23/07:30pm 21.3 ESE 15 18 1019.2 - - - - - - - - -
23/07:00pm 21.6 ESE 16 19 1019.0 - - - - - - - - -

Other Formats:

Comma delimited format used in spreadsheet applications
http://www.bom.gov.au/fwo/IDQ60701/IDQ60701.94394.axf

JavaScript Object Notation format (JSON) in row-major order
http://www.bom.gov.au/fwo/IDQ60701/IDQ60701.94394.json